Time;durP1;ratioP1;P1;durP2;ratioP2;P2;SDS_P1;SDS_P2;PMS_P1;PMS_P2;Temp;Humidity;BMP_temperature;BMP_pressure;BME280_temperature;BME280_humidity;BME280_pressure;Samples;Min_cycle;Max_cycle;Signal;HPM_P1;HPM_P2
2021/06/19 00:01:10;;;;;;;1.42;1.00;;;;;;;24.09;55.54;101021.19;5038720;28;20033;-68
2021/06/19 00:03:35;;;;;;;4.68;2.13;;;;;;;24.02;55.49;101021.38;5037100;28;20035;-68
2021/06/19 00:06:01;;;;;;;1.85;1.30;;;;;;;24.00;55.59;101026.09;5038325;28;20088;-68
2021/06/19 00:08:26;;;;;;;2.65;1.40;;;;;;;23.96;55.93;101032.91;5037511;28;20055;-68
2021/06/19 00:10:52;;;;;;;4.20;1.35;;;;;;;23.93;55.85;101028.09;5044940;28;20416;-68
2021/06/19 00:13:18;;;;;;;3.00;1.25;;;;;;;23.89;56.14;101035.72;5041022;28;20053;-68
2021/06/19 00:15:44;;;;;;;2.67;1.10;;;;;;;23.88;56.20;101030.66;5043402;28;20064;-68
2021/06/19 00:18:10;;;;;;;1.88;1.20;;;;;;;23.86;56.31;101040.69;5047844;28;20142;-69
2021/06/19 00:20:35;;;;;;;4.18;1.45;;;;;;;23.86;56.51;101038.03;5042088;28;20041;-68
2021/06/19 00:23:01;;;;;;;2.55;1.38;;;;;;;23.76;56.64;101032.53;5040973;28;20135;-68
2021/06/19 00:25:28;;;;;;;3.20;1.02;;;;;;;23.69;57.00;101041.41;5045195;28;20026;-68
2021/06/19 00:27:54;;;;;;;3.85;1.60;;;;;;;23.64;57.29;101029.94;5046422;28;20032;-69
2021/06/19 00:30:20;;;;;;;2.17;1.60;;;;;;;23.55;57.66;101031.38;5039291;28;20055;-68
2021/06/19 00:32:46;;;;;;;4.70;1.50;;;;;;;23.52;57.73;101043.22;5047013;28;20505;-68
2021/06/19 00:35:12;;;;;;;5.97;1.60;;;;;;;23.49;57.62;101043.72;5027309;28;20032;-68
2021/06/19 00:37:38;;;;;;;1.67;1.20;;;;;;;23.45;57.73;101031.97;5043764;28;20037;-68
2021/06/19 00:40:06;;;;;;;2.75;1.40;;;;;;;23.40;57.68;101040.63;5051470;28;20036;-68
2021/06/19 00:42:32;;;;;;;4.07;1.33;;;;;;;23.36;57.64;101046.59;5029216;28;20041;-68
2021/06/19 00:44:58;;;;;;;2.75;1.08;;;;;;;23.29;57.52;101055.50;5044151;28;20154;-68
2021/06/19 00:47:25;;;;;;;4.88;1.83;;;;;;;23.28;57.86;101055.72;5029924;28;20405;-68
2021/06/19 00:49:50;;;;;;;2.55;1.20;;;;;;;23.25;57.42;101049.06;5044267;28;20036;-68
2021/06/19 00:52:16;;;;;;;1.35;1.15;;;;;;;23.15;57.94;101045.41;5032686;28;20110;-68
2021/06/19 00:54:41;;;;;;;3.88;1.60;;;;;;;23.05;57.54;101052.09;5041997;28;20115;-68
2021/06/19 00:57:08;;;;;;;3.20;1.33;;;;;;;23.02;58.01;101044.59;5047457;28;20033;-68
2021/06/19 00:59:35;;;;;;;2.28;1.10;;;;;;;22.98;58.05;101043.47;5044260;28;20112;-68
2021/06/19 01:02:01;;;;;;;3.17;1.45;;;;;;;22.99;58.00;101046.91;5028356;28;20049;-68
2021/06/19 01:04:26;;;;;;;2.47;0.90;;;;;;;22.95;58.06;101041.28;5035530;28;20034;-68
2021/06/19 01:06:52;;;;;;;1.27;1.13;;;;;;;22.94;57.88;101047.59;5047486;28;20040;-68
2021/06/19 01:09:17;;;;;;;3.20;0.95;;;;;;;22.90;57.88;101046.47;5043682;28;20029;-68
2021/06/19 01:11:43;;;;;;;4.20;1.38;;;;;;;22.91;58.03;101054.16;5041176;28;20538;-68
2021/06/19 01:14:09;;;;;;;1.67;1.20;;;;;;;22.92;58.17;101047.03;5046420;28;20039;-68
2021/06/19 01:16:35;;;;;;;4.85;1.20;;;;;;;22.88;58.18;101045.88;5034001;28;20408;-68
2021/06/19 01:19:01;;;;;;;5.57;1.70;;;;;;;22.84;58.43;101050.84;5044279;28;20097;-68
2021/06/19 01:21:31;;;;;;;2.13;1.27;;;;;;;22.81;58.60;101053.97;5043578;28;20470;-68
2021/06/19 01:23:58;;;;;;;2.42;1.35;;;;;;;22.77;58.47;101047.50;5031216;28;20449;-68
2021/06/19 01:26:27;;;;;;;4.35;1.35;;;;;;;22.78;58.46;101053.59;5038462;28;20033;-68
2021/06/19 01:28:53;;;;;;;3.47;1.15;;;;;;;22.73;58.71;101057.75;5041567;28;20071;-68
2021/06/19 01:31:19;;;;;;;1.02;0.85;;;;;;;22.68;58.97;101051.56;5041483;28;20038;-68
2021/06/19 01:33:47;;;;;;;2.47;1.20;;;;;;;22.66;59.04;101049.13;5043275;28;20091;-68
2021/06/19 01:36:13;;;;;;;4.47;1.48;;;;;;;22.66;59.21;101051.78;5035062;28;20037;-68
2021/06/19 01:38:40;;;;;;;1.48;0.95;;;;;;;22.59;59.23;101055.56;5036822;28;20044;-68
2021/06/19 01:41:12;;;;;;;4.20;1.65;;;;;;;22.53;59.43;101052.00;5040115;28;20037;-68
2021/06/19 01:43:38;;;;;;;5.85;1.10;;;;;;;22.43;60.03;101057.84;5022034;28;20045;-68
2021/06/19 01:46:04;;;;;;;3.67;1.10;;;;;;;22.37;59.74;101055.31;5041287;28;20062;-68
2021/06/19 01:48:29;;;;;;;2.85;1.45;;;;;;;22.31;60.00;101055.19;5048010;28;20115;-68
2021/06/19 01:50:55;;;;;;;2.53;1.15;;;;;;;22.29;60.54;101064.38;5043552;28;20040;-68
2021/06/19 01:53:20;;;;;;;3.47;1.20;;;;;;;;;;5035379;28;20395;-68
2021/06/19 01:55:45;;;;;;;3.13;1.33;;;;;;;22.22;60.31;101061.81;5044509;28;20091;-68
2021/06/19 01:58:11;;;;;;;2.47;1.20;;;;;;;22.19;60.22;101062.28;5044207;28;20041;-68
2021/06/19 02:00:37;;;;;;;1.73;1.17;;;;;;;22.17;60.50;101056.41;5044141;28;20039;-69
2021/06/19 02:03:06;;;;;;;3.72;1.30;;;;;;;22.14;60.52;101056.88;5048109;28;20048;-68
2021/06/19 02:05:32;;;;;;;2.65;1.40;;;;;;;22.11;60.53;101049.38;5034109;28;20443;-69
2021/06/19 02:08:00;;;;;;;2.53;1.25;;;;;;;22.09;60.34;101052.25;5050379;28;20044;-68
2021/06/19 02:10:31;;;;;;;3.80;1.00;;;;;;;22.08;60.85;101057.78;5050541;28;20028;-68
2021/06/19 02:12:58;;;;;;;2.63;1.42;;;;;;;21.99;60.94;101057.28;5038055;28;20094;-68
2021/06/19 02:15:24;;;;;;;1.38;0.98;;;;;;;21.99;61.02;101057.28;5048994;28;20028;-68
2021/06/19 02:17:49;;;;;;;8.32;1.30;;;;;;;21.87;61.16;101056.44;5040136;28;20066;-68
2021/06/19 02:20:17;;;;;;;1.50;1.05;;;;;;;21.95;61.00;101051.66;5050224;28;20016;-68
2021/06/19 02:22:43;;;;;;;4.38;1.33;;;;;;;21.93;61.23;101053.72;5042063;28;20086;-68
2021/06/19 02:25:11;;;;;;;3.63;1.30;;;;;;;21.90;61.21;101056.78;5045939;28;20037;-68
2021/06/19 02:27:40;;;;;;;2.75;1.38;;;;;;;21.88;61.41;101053.56;5043283;28;20061;-69
2021/06/19 02:30:06;;;;;;;2.80;1.10;;;;;;;21.76;61.70;101050.91;5039103;28;20085;-68
2021/06/19 02:32:32;;;;;;;3.30;1.35;;;;;;;21.86;61.21;101062.75;5031931;28;20052;-68
2021/06/19 02:34:57;;;;;;;3.65;1.20;;;;;;;21.80;61.78;101053.09;5044224;28;20453;-68
2021/06/19 02:37:22;;;;;;;1.42;1.10;;;;;;;21.73;61.81;101059.25;5038956;28;20109;-68
2021/06/19 02:39:48;;;;;;;7.20;1.30;;;;;;;21.75;62.28;101072.22;5043097;28;20037;-68
2021/06/19 02:42:13;;;;;;;5.65;1.27;;;;;;;21.68;62.31;101079.41;5048539;28;20505;-68
2021/06/19 02:44:39;;;;;;;3.15;1.10;;;;;;;21.66;62.19;101066.47;5050005;28;20037;-68
2021/06/19 02:47:04;;;;;;;2.15;1.13;;;;;;;21.64;62.45;101076.41;5042466;28;20127;-67
2021/06/19 02:49:30;;;;;;;3.85;1.13;;;;;;;21.62;62.69;101081.13;5049424;28;20036;-68
2021/06/19 02:51:57;;;;;;;2.08;1.20;;;;;;;21.55;62.77;101078.59;5043020;28;20041;-68
2021/06/19 02:54:22;;;;;;;4.70;1.10;;;;;;;21.49;62.67;101090.03;5030519;28;20040;-67
2021/06/19 02:56:48;;;;;;;2.90;1.23;;;;;;;21.50;62.91;101083.72;5043027;28;20036;-68
2021/06/19 02:59:13;;;;;;;2.15;1.27;;;;;;;21.50;63.07;101088.97;5050406;28;20369;-68
2021/06/19 03:01:39;;;;;;;3.92;1.70;;;;;;;21.47;62.99;101089.41;5031775;28;20086;-68
2021/06/19 03:04:04;;;;;;;3.95;1.20;;;;;;;21.51;62.92;101085.34;5030838;28;20404;-68
2021/06/19 03:06:29;;;;;;;2.33;1.15;;;;;;;21.42;63.28;101086.63;5044318;28;20116;-68
2021/06/19 03:08:55;;;;;;;1.95;1.20;;;;;;;21.36;63.48;101098.03;5041612;28;20071;-68
2021/06/19 03:11:20;;;;;;;2.17;1.10;;;;;;;21.34;63.53;101094.81;5044237;28;20692;-68
2021/06/19 03:13:46;;;;;;;2.40;1.27;;;;;;;21.32;63.45;101102.97;5049730;28;20037;-68
2021/06/19 03:16:11;;;;;;;3.20;0.93;;;;;;;21.30;63.88;101107.63;5047197;28;20766;-68
2021/06/19 03:18:37;;;;;;;2.13;1.17;;;;;;;21.29;63.75;101100.75;5044378;28;20443;-68
2021/06/19 03:21:02;;;;;;;3.38;1.30;;;;;;;21.28;63.81;101104.41;5031151;28;20051;-68
2021/06/19 03:23:28;;;;;;;2.40;1.10;;;;;;;21.30;63.96;101118.19;5048088;28;20036;-68
2021/06/19 03:25:53;;;;;;;4.10;1.98;;;;;;;21.23;64.16;101116.63;5042233;28;20036;-68
2021/06/19 03:28:19;;;;;;;1.98;1.20;;;;;;;21.24;63.96;101123.53;5048595;28;20041;-68
2021/06/19 03:30:46;;;;;;;1.17;1.08;;;;;;;21.19;64.31;101117.09;5031158;28;20075;-68
2021/06/19 03:33:12;;;;;;;2.75;1.10;;;;;;;21.16;64.44;101133.34;5047907;28;20025;-68
2021/06/19 03:35:38;;;;;;;1.70;1.20;;;;;;;21.17;64.59;101124.41;5048721;28;20099;-67
2021/06/19 03:38:05;;;;;;;2.35;1.02;;;;;;;21.15;64.53;101131.75;5041329;28;20481;-69
2021/06/19 03:40:32;;;;;;;3.00;1.10;;;;;;;21.18;64.40;101136.56;5041944;28;20112;-68
2021/06/19 03:42:58;;;;;;;3.28;0.95;;;;;;;21.16;64.38;101135.97;5044605;28;20072;-68
2021/06/19 03:45:29;;;;;;;2.97;0.95;;;;;;;21.20;64.33;101133.72;5047707;28;20047;-69
2021/06/19 03:47:55;;;;;;;1.88;1.20;;;;;;;21.13;64.66;101136.41;5048575;28;20116;-68
2021/06/19 03:50:23;;;;;;;5.78;1.25;;;;;;;21.09;64.89;101140.50;5048484;28;20021;-68
2021/06/19 03:52:49;;;;;;;3.17;1.20;;;;;;;21.07;64.78;101147.03;5046207;28;20053;-68
2021/06/19 03:55:14;;;;;;;2.97;1.23;;;;;;;21.04;64.61;101156.19;5044746;28;20440;-68
2021/06/19 03:57:40;;;;;;;2.60;0.88;;;;;;;21.03;64.81;101153.75;5039458;28;20086;-68
2021/06/19 04:00:10;;;;;;;3.22;1.05;;;;;;;21.02;65.03;101155.59;5041500;28;20049;-69
2021/06/19 04:02:39;;;;;;;2.85;1.67;;;;;;;20.99;65.33;101158.66;5049290;28;20055;-68
2021/06/19 04:05:07;;;;;;;3.85;1.02;;;;;;;20.89;65.63;101158.31;5045295;28;20040;-68
2021/06/19 04:07:33;;;;;;;2.88;1.20;;;;;;;20.88;65.76;101154.09;5046747;28;20055;-68
2021/06/19 04:09:58;;;;;;;1.10;0.80;;;;;;;20.80;65.87;101158.59;5051641;28;20029;-68
2021/06/19 04:12:24;;;;;;;3.20;1.20;;;;;;;20.86;65.39;101151.66;5047940;28;20124;-68
2021/06/19 04:14:50;;;;;;;1.83;1.08;;;;;;;20.72;65.98;101150.16;5047428;28;20025;-68
2021/06/19 04:17:16;;;;;;;1.70;1.13;;;;;;;20.70;66.03;101146.94;5030334;28;20496;-68
2021/06/19 04:19:43;;;;;;;3.17;0.98;;;;;;;20.69;66.28;101143.50;5047621;28;20029;-68
2021/06/19 04:22:09;;;;;;;1.48;1.20;;;;;;;20.67;66.19;101132.38;5034653;28;20505;-67
2021/06/19 04:24:35;;;;;;;4.53;1.20;;;;;;;20.69;66.19;101140.84;5045218;28;20037;-68
2021/06/19 04:27:02;;;;;;;6.18;2.03;;;;;;;20.74;66.17;101142.88;5025867;28;20402;-67
2021/06/19 04:29:29;;;;;;;2.92;1.02;;;;;;;20.75;66.23;101140.00;5042197;28;20776;-68
2021/06/19 04:31:55;;;;;;;3.53;1.10;;;;;;;20.77;66.47;101156.38;5038826;28;20119;-68
2021/06/19 04:34:24;;;;;;;3.05;1.55;;;;;;;20.75;66.33;101155.00;5041859;28;20493;-68
2021/06/19 04:36:50;;;;;;;4.80;1.30;;;;;;;20.75;66.43;101161.06;5051234;28;20507;-68
2021/06/19 04:39:16;;;;;;;3.67;1.17;;;;;;;20.83;66.03;101169.72;5030126;28;20068;-68
2021/06/19 04:41:59;;;;;;;1.92;1.40;;;;;;;20.79;66.43;101172.81;5040129;28;20116;-68
2021/06/19 04:46:51;;;;;;;4.28;1.23;;;;;;;20.90;65.88;101166.03;5043374;28;20021;-68
2021/06/19 04:49:17;;;;;;;1.73;1.13;;;;;;;20.95;65.60;101168.81;5040435;28;20024;-68
2021/06/19 04:51:42;;;;;;;2.80;1.40;;;;;;;20.87;65.73;101176.19;5027122;28;20390;-68
2021/06/19 04:54:08;;;;;;;4.65;1.30;;;;;;;20.90;66.13;101181.84;5029346;28;20686;-68
2021/06/19 04:56:34;;;;;;;2.15;1.10;;;;;;;20.93;66.14;101183.25;5041152;28;20033;-68
2021/06/19 04:59:01;;;;;;;3.13;1.58;;;;;;;20.96;65.73;101185.44;5040116;28;20069;-69
2021/06/19 05:01:28;;;;;;;1.90;1.20;;;;;;;21.09;65.41;101181.88;5047965;28;20106;-68
2021/06/19 05:03:53;;;;;;;2.22;2.03;;;;;;;21.09;64.98;101187.97;5044770;28;20041;-68
2021/06/19 05:06:18;;;;;;;3.33;1.30;;;;;;;21.10;65.26;101194.06;5038847;28;20063;-69
2021/06/19 05:08:44;;;;;;;2.50;1.55;;;;;;;21.20;64.86;101207.53;5046172;28;20033;-68
2021/06/19 05:11:09;;;;;;;4.68;1.38;;;;;;;21.20;64.98;101208.34;5047321;28;20488;-68
2021/06/19 05:13:35;;;;;;;2.00;1.35;;;;;;;21.31;64.68;101198.91;5036732;28;20024;-68
2021/06/19 05:16:00;;;;;;;3.53;1.60;;;;;;;21.41;63.73;101203.69;5064908;23;20044;-72
2021/06/19 05:18:26;;;;;;;2.55;1.75;;;;;;;21.54;63.44;101200.94;5076680;28;20055;-73
2021/06/19 05:20:51;;;;;;;2.47;1.30;;;;;;;21.76;63.22;101198.69;5072982;28;20073;-73
2021/06/19 05:23:17;;;;;;;2.95;1.33;;;;;;;21.90;62.52;101209.09;5070259;28;20505;-73
2021/06/19 05:25:42;;;;;;;3.50;1.40;;;;;;;21.85;62.60;101208.94;5070339;28;20067;-72
2021/06/19 05:28:08;;;;;;;5.50;1.70;;;;;;;21.92;62.16;101213.09;5092303;22;20387;-73
2021/06/19 05:30:33;;;;;;;2.78;1.40;;;;;;;22.03;61.82;101218.69;5091747;28;20122;-73
2021/06/19 05:32:59;;;;;;;2.70;1.50;;;;;;;22.01;62.58;101215.47;5088630;28;20118;-73
2021/06/19 05:35:24;;;;;;;1.73;1.30;;;;;;;21.97;62.53;101228.28;5080820;28;20087;-73
2021/06/19 05:37:50;;;;;;;3.38;1.25;;;;;;;22.26;61.72;101229.38;5078576;28;20047;-72
2021/06/19 05:40:16;;;;;;;2.20;1.40;;;;;;;22.46;60.74;101215.09;5079603;28;20048;-72
2021/06/19 05:42:42;;;;;;;2.58;1.23;;;;;;;22.60;60.42;101219.16;5079241;28;20119;-72
2021/06/19 05:45:08;;;;;;;4.88;1.40;;;;;;;22.76;59.87;101206.34;5072143;28;20082;-73
2021/06/19 05:47:34;;;;;;;1.17;1.02;;;;;;;23.04;58.85;101200.41;5081790;28;20036;-72
2021/06/19 05:49:59;;;;;;;4.13;1.83;;;;;;;23.32;58.12;101212.97;5074204;28;20028;-72
2021/06/19 05:52:26;;;;;;;2.88;1.50;;;;;;;23.64;57.66;101217.84;5074972;28;20071;-72
2021/06/19 05:54:51;;;;;;;8.57;2.28;;;;;;;23.70;56.70;101217.72;5074172;28;20071;-72
2021/06/19 05:57:17;;;;;;;3.38;1.65;;;;;;;23.72;55.99;101222.78;5071395;28;20046;-74
2021/06/19 05:59:42;;;;;;;3.17;1.50;;;;;;;23.82;56.52;101223.03;5079523;28;20499;-73
2021/06/19 06:02:08;;;;;;;3.10;1.48;;;;;;;24.09;55.42;101233.06;5077273;28;20454;-72
2021/06/19 06:04:34;;;;;;;2.10;1.20;;;;;;;24.16;54.55;101225.00;5073379;28;20039;-70
2021/06/19 06:07:00;;;;;;;2.22;1.40;;;;;;;24.11;54.50;101228.38;5079950;28;20044;-70
2021/06/19 06:09:26;;;;;;;4.68;1.42;;;;;;;24.05;54.86;101224.00;5072336;28;20448;-70
2021/06/19 06:11:51;;;;;;;3.67;1.27;;;;;;;24.35;54.13;101233.56;5083367;28;20063;-70
2021/06/19 06:14:17;;;;;;;3.55;1.20;;;;;;;24.82;53.67;101228.81;5070309;28;20072;-70
2021/06/19 06:16:42;;;;;;;3.28;1.30;;;;;;;25.27;52.53;101229.78;5083385;28;20028;-70
2021/06/19 06:19:08;;;;;;;1.77;1.08;;;;;;;25.44;52.17;101235.06;5081780;28;20032;-70
2021/06/19 06:21:33;;;;;;;3.60;1.30;;;;;;;25.57;50.92;101232.06;5080205;28;20064;-70
2021/06/19 06:23:59;;;;;;;4.40;1.25;;;;;;;25.70;50.77;101236.19;5070177;28;20067;-70
2021/06/19 06:26:24;;;;;;;2.28;1.13;;;;;;;26.16;49.89;101226.16;5065224;28;20028;-70
2021/06/19 06:28:50;;;;;;;1.83;0.90;;;;;;;26.36;48.96;101233.50;5075000;28;20043;-71
2021/06/19 06:31:16;;;;;;;2.75;1.08;;;;;;;26.14;49.67;101238.84;5069408;28;20028;-71
2021/06/19 06:33:41;;;;;;;4.10;1.13;;;;;;;26.08;49.66;101241.72;5069213;28;20065;-70
2021/06/19 06:36:07;;;;;;;3.15;1.17;;;;;;;26.24;48.13;101246.16;5066826;28;20221;-70
2021/06/19 06:38:32;;;;;;;4.50;1.35;;;;;;;26.31;46.88;101244.06;5069718;28;20024;-71
2021/06/19 06:40:57;;;;;;;4.00;1.10;;;;;;;26.35;48.10;101245.22;5070484;28;20064;-71
2021/06/19 06:43:23;;;;;;;4.07;1.10;;;;;;;26.81;47.85;101247.50;5072689;28;20123;-73
2021/06/19 06:45:49;;;;;;;1.10;1.00;;;;;;;27.16;45.69;101246.97;5069707;28;20028;-73
2021/06/19 06:48:14;;;;;;;2.58;1.17;;;;;;;27.33;45.22;101238.00;5072705;28;20077;-71
2021/06/19 06:50:40;;;;;;;5.88;0.95;;;;;;;27.49;45.02;101238.91;5065052;28;20028;-71
2021/06/19 06:53:06;;;;;;;1.58;0.70;;;;;;;27.80;44.09;101239.03;5068988;28;20043;-71
2021/06/19 06:55:32;;;;;;;6.03;2.00;;;;;;;27.93;44.54;101242.06;5065828;28;20099;-71
2021/06/19 06:57:58;;;;;;;3.88;1.17;;;;;;;27.79;43.98;101240.09;5064105;28;20040;-71
2021/06/19 07:00:23;;;;;;;1.65;1.00;;;;;;;27.80;44.31;101247.81;5069736;28;20221;-71
2021/06/19 07:02:49;;;;;;;2.08;1.10;;;;;;;27.88;43.88;101243.88;5069933;28;20054;-71
2021/06/19 07:05:14;;;;;;;5.35;1.13;;;;;;;27.85;43.96;101242.50;5069468;28;20160;-71
2021/06/19 07:07:40;;;;;;;6.60;1.10;;;;;;;27.81;43.80;101230.00;5069084;28;20036;-71
2021/06/19 07:10:09;;;;;;;3.53;1.15;;;;;;;28.22;43.68;101232.78;5070464;28;20024;-71
2021/06/19 07:12:36;;;;;;;2.60;1.10;;;;;;;28.04;43.96;101226.88;5070122;28;20036;-71
2021/06/19 07:15:06;;;;;;;2.83;0.90;;;;;;;28.07;43.36;101233.56;5067111;28;20028;-71
2021/06/19 07:17:31;;;;;;;4.32;1.00;;;;;;;28.62;42.12;101228.59;5075096;28;20042;-71
2021/06/19 07:19:57;;;;;;;3.13;1.15;;;;;;;28.62;41.84;101217.94;5069079;28;20044;-72
2021/06/19 07:22:22;;;;;;;1.33;1.00;;;;;;;29.07;40.60;101222.41;5087547;28;20094;-72
2021/06/19 07:24:48;;;;;;;4.20;0.90;;;;;;;29.30;39.69;101230.91;5070481;28;20028;-71
2021/06/19 07:27:14;;;;;;;1.92;0.80;;;;;;;29.62;39.77;101232.41;5071675;28;20036;-71
2021/06/19 07:29:40;;;;;;;1.70;0.95;;;;;;;29.68;40.12;101229.44;5082032;28;20032;-71
2021/06/19 07:32:05;;;;;;;1.30;0.90;;;;;;;30.03;38.69;101218.88;5076763;28;20114;-72
2021/06/19 07:34:31;;;;;;;1.50;0.70;;;;;;;30.35;37.73;101221.09;5068710;28;20048;-71
2021/06/19 07:36:56;;;;;;;2.78;1.15;;;;;;;30.17;37.91;101227.06;5064298;28;20037;-72
2021/06/19 07:39:22;;;;;;;2.70;1.08;;;;;;;30.16;38.57;101220.94;5081773;28;20059;-71
2021/06/19 07:41:48;;;;;;;6.20;1.67;;;;;;;30.19;38.56;101214.22;5073502;28;20055;-71
2021/06/19 07:44:14;;;;;;;3.67;1.10;;;;;;;30.34;38.67;101226.72;5077229;28;20032;-71
2021/06/19 07:46:40;;;;;;;2.50;0.90;;;;;;;30.72;37.24;101213.56;5080530;28;20375;-71
2021/06/19 07:49:06;;;;;;;0.80;0.68;;;;;;;30.79;37.84;101220.16;5073745;28;20020;-72
2021/06/19 07:51:31;;;;;;;1.48;1.00;;;;;;;30.91;36.98;101222.53;5070351;28;20485;-72
2021/06/19 07:53:57;;;;;;;1.50;0.80;;;;;;;30.95;36.07;101225.41;5076357;28;20043;-72
2021/06/19 07:56:24;;;;;;;2.47;1.05;;;;;;;31.04;37.28;101205.78;5073367;28;20033;-72
2021/06/19 07:58:49;;;;;;;3.30;1.23;;;;;;;30.85;36.43;101208.34;5080430;28;20038;-72
2021/06/19 08:01:14;;;;;;;2.00;0.80;;;;;;;30.89;36.86;101213.13;5070281;28;20040;-72
2021/06/19 08:03:40;;;;;;;2.03;1.02;;;;;;;31.02;37.58;101207.94;5074865;28;20067;-72
2021/06/19 08:06:05;;;;;;;4.43;0.90;;;;;;;31.15;37.80;101200.31;5078126;28;20472;-72
2021/06/19 08:08:30;;;;;;;3.35;1.05;;;;;;;31.22;34.99;101196.19;5075886;28;20028;-71
2021/06/19 08:10:56;;;;;;;1.83;0.90;;;;;;;31.10;36.36;101195.00;5069003;28;20404;-72
2021/06/19 08:13:21;;;;;;;2.10;0.90;;;;;;;31.65;35.85;101205.34;5072636;28;20009;-72
2021/06/19 08:15:47;;;;;;;2.55;0.90;;;;;;;31.56;35.17;101206.00;5073396;28;20032;-72
2021/06/19 08:18:12;;;;;;;1.30;0.90;;;;;;;31.91;35.13;101206.59;5067864;28;20024;-72
2021/06/19 08:20:38;;;;;;;0.73;0.70;;;;;;;32.09;34.49;101207.69;5076056;28;20057;-72
2021/06/19 08:23:04;;;;;;;2.65;0.70;;;;;;;32.20;33.71;101205.66;5069981;28;20051;-72
2021/06/19 08:25:30;;;;;;;3.58;1.38;;;;;;;31.97;34.27;101213.47;5063033;28;20040;-72
2021/06/19 08:27:56;;;;;;;1.80;0.70;;;;;;;32.19;35.17;101214.78;5066269;28;20419;-72
2021/06/19 08:30:21;;;;;;;1.70;1.10;;;;;;;31.92;35.38;101208.19;5068509;28;20024;-72
2021/06/19 08:32:47;;;;;;;1.55;0.90;;;;;;;32.26;34.91;101211.75;5070061;28;20032;-72
2021/06/19 08:35:13;;;;;;;1.67;1.20;;;;;;;32.36;34.05;101212.38;5063103;28;20033;-72
2021/06/19 08:37:38;;;;;;;3.97;1.38;;;;;;;32.34;34.36;101213.75;5062087;28;20036;-72
2021/06/19 08:40:06;;;;;;;2.30;1.00;;;;;;;32.49;34.74;101210.00;5047516;28;20081;-72
2021/06/19 08:42:31;;;;;;;5.30;1.20;;;;;;;32.45;34.37;101199.06;5068400;28;20044;-72
2021/06/19 08:44:59;;;;;;;5.40;1.00;;;;;;;32.64;33.89;101199.03;5067236;28;20087;-72
2021/06/19 08:47:25;;;;;;;1.17;0.80;;;;;;;32.58;34.52;101195.66;5068249;28;20487;-73
2021/06/19 08:49:53;;;;;;;2.15;0.70;;;;;;;32.47;34.31;101198.78;5070547;28;20066;-73
2021/06/19 08:52:19;;;;;;;1.50;0.70;;;;;;;32.33;34.50;101204.13;5072723;28;20032;-73
2021/06/19 08:54:44;;;;;;;4.78;1.75;;;;;;;32.52;33.43;101191.44;5066551;28;20074;-72
2021/06/19 08:57:13;;;;;;;1.70;1.13;;;;;;;32.71;33.72;101187.94;5064368;28;20036;-72
2021/06/19 08:59:46;;;;;;;1.15;0.80;;;;;;;32.83;33.93;101190.91;5068073;28;20042;-71
2021/06/19 09:02:11;;;;;;;1.20;0.93;;;;;;;32.19;33.45;101193.31;5064873;28;20340;-73
2021/06/19 09:04:57;;;;;;;1.73;0.70;;;;;;;32.03;34.19;101184.75;5068748;28;20083;-73
2021/06/19 09:07:35;;;;;;;2.47;0.70;;;;;;;32.28;34.16;101183.53;5060657;28;20124;-72
2021/06/19 09:10:19;;;;;;;2.08;0.80;;;;;;;32.72;33.12;101181.47;5075248;28;20058;-72
2021/06/19 09:13:08;;;;;;;1.30;0.70;;;;;;;32.65;34.71;101183.75;5069575;28;20029;-73
2021/06/19 09:15:36;;;;;;;1.38;1.00;;;;;;;32.58;33.67;101181.44;5066049;28;20041;-72
2021/06/19 09:18:25;;;;;;;1.60;1.10;;;;;;;32.44;34.18;101184.09;5069977;28;20040;-72
2021/06/19 09:21:02;;;;;;;2.30;1.00;;;;;;;32.44;33.48;101173.34;5071072;28;20055;-72
2021/06/19 09:23:33;;;;;;;2.92;1.25;;;;;;;32.51;33.88;101181.00;5070150;28;20036;-72
2021/06/19 09:26:11;;;;;;;2.15;0.73;;;;;;;32.52;35.02;101169.19;5075195;28;20527;-72
2021/06/19 09:28:58;;;;;;;0.98;0.70;;;;;;;32.32;32.90;101164.97;5066729;28;20037;-73
2021/06/19 09:31:30;;;;;;;1.40;0.68;;;;;;;32.52;34.92;101163.81;5064393;28;20024;-73
2021/06/19 09:34:11;;;;;;;1.33;0.83;;;;;;;32.70;34.16;101160.31;5054207;28;20044;-73
2021/06/19 09:36:42;;;;;;;1.40;0.90;;;;;;;32.66;33.56;101155.81;5063234;28;20294;-72
2021/06/19 09:39:09;;;;;;;4.25;1.02;;;;;;;32.81;33.14;101149.38;5066992;28;20048;-73
2021/06/19 09:41:46;;;;;;;1.90;0.52;;;;;;;32.68;31.17;101159.81;5065014;28;20561;-72
2021/06/19 09:44:12;;;;;;;1.17;0.75;;;;;;;32.49;33.60;101154.47;5065216;28;20388;-73
2021/06/19 09:46:37;;;;;;;1.40;0.80;;;;;;;32.85;32.20;101153.84;5066180;28;20146;-73
2021/06/19 09:49:14;;;;;;;1.60;0.90;;;;;;;32.75;33.06;101154.81;5069190;28;20037;-73
2021/06/19 09:51:50;;;;;;;0.65;0.60;;;;;;;32.78;33.17;101158.81;5076485;28;20476;-74
2021/06/19 09:54:18;;;;;;;1.88;0.70;;;;;;;32.87;33.06;101146.31;5069149;28;20312;-74
2021/06/19 09:56:51;;;;;;;2.45;0.70;;;;;;;32.93;33.10;101147.78;5069347;28;20043;-73
2021/06/19 09:59:19;;;;;;;1.15;0.70;;;;;;;32.95;32.04;101145.59;5076323;28;20056;-73
2021/06/19 10:01:44;;;;;;;6.07;1.00;;;;;;;32.72;33.13;101152.75;5078215;28;20039;-73
2021/06/19 10:04:15;;;;;;;1.17;0.68;;;;;;;32.88;33.48;101155.94;5072924;28;20350;-73
2021/06/19 10:06:42;;;;;;;0.95;0.68;;;;;;;32.72;33.08;101151.94;5070227;28;20469;-74
2021/06/19 10:09:08;;;;;;;1.50;0.75;;;;;;;32.61;34.13;101158.59;5078243;28;20428;-73
2021/06/19 10:11:34;;;;;;;2.67;1.70;;;;;;;32.33;34.11;101167.34;5072366;28;20040;-74
2021/06/19 10:14:01;;;;;;;1.08;0.73;;;;;;;32.35;34.89;101167.06;5088114;28;20539;-73
2021/06/19 10:16:28;;;;;;;3.63;1.08;;;;;;;32.19;34.99;101158.47;5072026;28;20152;-74
2021/06/19 10:18:54;;;;;;;3.40;0.70;;;;;;;32.34;34.17;101160.91;5063214;28;20032;-73
2021/06/19 10:21:22;;;;;;;1.60;0.80;;;;;;;32.58;34.24;101157.31;5072442;28;20053;-74
2021/06/19 10:23:48;;;;;;;1.00;0.85;;;;;;;32.68;34.10;101156.31;5066669;28;20392;-73
2021/06/19 10:26:15;;;;;;;2.05;0.98;;;;;;;32.44;34.20;101157.25;5072568;28;20229;-73
2021/06/19 10:28:47;;;;;;;0.95;0.80;;;;;;;32.39;34.74;101144.72;5083325;28;20036;-73
2021/06/19 10:31:14;;;;;;;5.63;1.00;;;;;;;32.49;34.21;101137.56;5071873;28;20534;-73
2021/06/19 10:33:41;;;;;;;1.38;0.88;;;;;;;32.69;33.83;101144.50;5079317;28;20035;-74
2021/06/19 10:36:08;;;;;;;1.20;0.80;;;;;;;32.80;34.31;101134.38;5072683;28;20032;-73
2021/06/19 10:38:48;;;;;;;3.60;1.27;;;;;;;32.65;33.78;101135.44;5079035;28;20028;-73
2021/06/19 10:41:14;;;;;;;1.33;0.90;;;;;;;32.32;33.18;101125.50;5093949;28;20040;-74
2021/06/19 10:43:48;;;;;;;1.63;0.85;;;;;;;32.65;33.27;101114.78;5078031;28;20462;-74
2021/06/19 10:46:33;;;;;;;2.05;0.95;;;;;;;32.66;32.98;101104.81;5078230;28;20044;-74
2021/06/19 10:49:01;;;;;;;1.48;0.88;;;;;;;32.74;33.83;101115.66;5074632;28;20447;-73
2021/06/19 10:51:30;;;;;;;4.35;1.00;;;;;;;32.50;33.41;101123.09;5085672;28;20480;-74
2021/06/19 10:54:13;;;;;;;4.53;1.00;;;;;;;32.59;33.63;101113.28;5079687;28;20032;-74
2021/06/19 10:56:56;;;;;;;1.08;0.77;;;;;;;32.61;32.04;101103.03;5071060;28;20055;-74
2021/06/19 10:59:31;;;;;;;4.80;0.90;;;;;;;32.57;34.32;101107.41;5077484;28;20032;-73
2021/06/19 11:02:02;;;;;;;3.10;1.30;;;;;;;32.69;33.58;101102.34;5080164;28;20357;-74
2021/06/19 11:04:40;;;;;;;4.35;0.90;;;;;;;32.71;33.44;101096.69;5074330;28;20029;-74
2021/06/19 11:07:06;;;;;;;2.35;1.00;;;;;;;32.47;33.68;101094.16;5071745;28;20033;-74
2021/06/19 11:09:39;;;;;;;2.20;1.13;;;;;;;32.35;34.30;101090.06;5071688;28;20032;-74
2021/06/19 11:12:09;;;;;;;2.08;1.20;;;;;;;32.48;33.70;101087.72;5071279;28;20036;-73
2021/06/19 11:14:44;;;;;;;1.30;0.88;;;;;;;32.82;32.46;101084.66;5083386;28;20074;-74
2021/06/19 11:17:22;;;;;;;1.60;1.23;;;;;;;32.56;32.39;101087.00;5075794;28;20054;-74
2021/06/19 11:19:51;;;;;;;1.45;0.93;;;;;;;32.52;33.03;101086.00;5066096;28;20477;-74
2021/06/19 11:22:36;;;;;;;3.05;1.70;;;;;;;32.52;34.59;101084.13;5073177;28;20120;-74
2021/06/19 11:25:18;;;;;;;1.30;1.10;;;;;;;32.06;35.63;101095.69;5084485;28;20040;-74
2021/06/19 11:27:50;;;;;;;2.65;1.13;;;;;;;32.07;36.22;101088.44;5068495;28;20032;-74
2021/06/19 11:30:37;;;;;;;2.95;1.52;;;;;;;31.96;36.76;101088.56;5071013;28;20071;-73